sensor_id;sensor_type;location;lat;lon;timestamp;temperature;humidity
6792;DHT22;3433;48.730;9.108;2023-03-09T00:01:24;11.10;99.90
6792;DHT22;3433;48.730;9.108;2023-03-09T00:03:52;11.10;99.90
6792;DHT22;3433;48.730;9.108;2023-03-09T00:06:21;11.10;99.90
6792;DHT22;3433;48.730;9.108;2023-03-09T00:08:48;11.10;99.90
6792;DHT22;3433;48.730;9.108;2023-03-09T00:11:16;11.10;99.90
6792;DHT22;3433;48.730;9.108;2023-03-09T00:13:44;11.10;99.90
6792;DHT22;3433;48.730;9.108;2023-03-09T00:16:12;11.00;99.90
6792;DHT22;3433;48.730;9.108;2023-03-09T00:18:40;11.10;99.90
6792;DHT22;3433;48.730;9.108;2023-03-09T00:21:09;11.10;99.90
6792;DHT22;3433;48.730;9.108;2023-03-09T00:23:54;11.00;99.90
6792;DHT22;3433;48.730;9.108;2023-03-09T00:26:21;11.10;99.90
6792;DHT22;3433;48.730;9.108;2023-03-09T00:28:49;11.00;99.90
6792;DHT22;3433;48.730;9.108;2023-03-09T00:31:16;11.00;99.90
6792;DHT22;3433;48.730;9.108;2023-03-09T00:33:46;11.00;99.90
6792;DHT22;3433;48.730;9.108;2023-03-09T00:36:15;11.00;99.90
6792;DHT22;3433;48.730;9.108;2023-03-09T00:38:42;10.90;99.90
6792;DHT22;3433;48.730;9.108;2023-03-09T00:41:09;11.00;99.90
6792;DHT22;3433;48.730;9.108;2023-03-09T00:43:36;11.00;99.90
6792;DHT22;3433;48.730;9.108;2023-03-09T00:46:03;11.00;99.90
6792;DHT22;3433;48.730;9.108;2023-03-09T00:48:30;11.00;99.90
6792;DHT22;3433;48.730;9.108;2023-03-09T00:50:56;11.00;99.90
6792;DHT22;3433;48.730;9.108;2023-03-09T00:53:25;11.00;99.90
6792;DHT22;3433;48.730;9.108;2023-03-09T00:55:52;11.00;99.90
6792;DHT22;3433;48.730;9.108;2023-03-09T00:58:19;10.90;99.90
6792;DHT22;3433;48.730;9.108;2023-03-09T01:00:45;10.80;99.90
6792;DHT22;3433;48.730;9.108;2023-03-09T01:03:12;10.80;99.90
6792;DHT22;3433;48.730;9.108;2023-03-09T01:05:40;10.80;99.90
6792;DHT22;3433;48.730;9.108;2023-03-09T01:08:07;10.70;99.90
6792;DHT22;3433;48.730;9.108;2023-03-09T01:10:37;10.60;99.90
6792;DHT22;3433;48.730;9.108;2023-03-09T01:15:35;10.40;99.90
6792;DHT22;3433;48.730;9.108;2023-03-09T01:18:02;10.30;99.90
6792;DHT22;3433;48.730;9.108;2023-03-09T01:20:29;10.20;99.90
6792;DHT22;3433;48.730;9.108;2023-03-09T01:22:56;10.20;99.90
6792;DHT22;3433;48.730;9.108;2023-03-09T01:25:24;10.20;99.90
6792;DHT22;3433;48.730;9.108;2023-03-09T01:27:52;10.00;99.90
6792;DHT22;3433;48.730;9.108;2023-03-09T01:30:19;10.10;99.90
6792;DHT22;3433;48.730;9.108;2023-03-09T01:32:46;10.20;99.90
6792;DHT22;3433;48.730;9.108;2023-03-09T01:35:13;10.20;99.90
6792;DHT22;3433;48.730;9.108;2023-03-09T01:37:40;10.10;99.90
6792;DHT22;3433;48.730;9.108;2023-03-09T01:40:09;10.20;99.90
6792;DHT22;3433;48.730;9.108;2023-03-09T01:42:36;10.20;99.90
6792;DHT22;3433;48.730;9.108;2023-03-09T01:47:55;10.00;99.90
6792;DHT22;3433;48.730;9.108;2023-03-09T01:50:26;10.10;99.90
6792;DHT22;3433;48.730;9.108;2023-03-09T01:52:56;10.00;99.90
6792;DHT22;3433;48.730;9.108;2023-03-09T01:55:26;10.00;99.90
6792;DHT22;3433;48.730;9.108;2023-03-09T01:57:59;10.00;99.90
6792;DHT22;3433;48.730;9.108;2023-03-09T02:00:29;10.00;99.90
6792;DHT22;3433;48.730;9.108;2023-03-09T02:03:00;9.90;99.90
6792;DHT22;3433;48.730;9.108;2023-03-09T02:05:31;9.90;99.90
6792;DHT22;3433;48.730;9.108;2023-03-09T02:08:00;9.80;99.90
6792;DHT22;3433;48.730;9.108;2023-03-09T02:10:30;9.70;99.90
6792;DHT22;3433;48.730;9.108;2023-03-09T02:13:00;9.70;99.90
6792;DHT22;3433;48.730;9.108;2023-03-09T02:15:29;9.80;99.90
6792;DHT22;3433;48.730;9.108;2023-03-09T02:17:56;9.90;99.90
6792;DHT22;3433;48.730;9.108;2023-03-09T02:20:28;9.90;99.90
6792;DHT22;3433;48.730;9.108;2023-03-09T02:22:57;9.90;99.90
6792;DHT22;3433;48.730;9.108;2023-03-09T02:25:28;9.80;99.90
6792;DHT22;3433;48.730;9.108;2023-03-09T02:27:58;9.90;99.90
6792;DHT22;3433;48.730;9.108;2023-03-09T02:30:27;9.80;99.90
6792;DHT22;3433;48.730;9.108;2023-03-09T02:33:03;9.70;99.90
6792;DHT22;3433;48.730;9.108;2023-03-09T02:35:30;9.70;99.90
6792;DHT22;3433;48.730;9.108;2023-03-09T02:37:57;9.80;99.90
6792;DHT22;3433;48.730;9.108;2023-03-09T02:40:30;9.70;99.90
6792;DHT22;3433;48.730;9.108;2023-03-09T02:43:02;9.70;99.90
6792;DHT22;3433;48.730;9.108;2023-03-09T02:45:30;9.70;99.90
6792;DHT22;3433;48.730;9.108;2023-03-09T02:47:58;9.70;99.90
6792;DHT22;3433;48.730;9.108;2023-03-09T02:50:25;9.60;99.90
6792;DHT22;3433;48.730;9.108;2023-03-09T02:52:52;9.70;99.90
6792;DHT22;3433;48.730;9.108;2023-03-09T02:55:19;9.70;99.90
6792;DHT22;3433;48.730;9.108;2023-03-09T02:57:46;9.50;99.90
6792;DHT22;3433;48.730;9.108;2023-03-09T03:00:16;9.60;99.90
6792;DHT22;3433;48.730;9.108;2023-03-09T03:02:46;9.60;99.90
6792;DHT22;3433;48.730;9.108;2023-03-09T03:05:13;9.70;99.90
6792;DHT22;3433;48.730;9.108;2023-03-09T03:07:40;9.70;99.90
6792;DHT22;3433;48.730;9.108;2023-03-09T03:10:08;9.70;99.90
6792;DHT22;3433;48.730;9.108;2023-03-09T03:12:35;9.80;99.90
6792;DHT22;3433;48.730;9.108;2023-03-09T03:15:02;9.80;99.90
6792;DHT22;3433;48.730;9.108;2023-03-09T03:17:31;9.90;99.90
6792;DHT22;3433;48.730;9.108;2023-03-09T03:19:58;9.90;99.90
6792;DHT22;3433;48.730;9.108;2023-03-09T03:22:25;10.00;99.90
6792;DHT22;3433;48.730;9.108;2023-03-09T03:24:52;10.00;99.90
6792;DHT22;3433;48.730;9.108;2023-03-09T03:27:22;10.00;99.90
6792;DHT22;3433;48.730;9.108;2023-03-09T03:29:51;10.00;99.90
6792;DHT22;3433;48.730;9.108;2023-03-09T03:32:17;10.00;99.90
6792;DHT22;3433;48.730;9.108;2023-03-09T03:34:46;10.00;99.90
6792;DHT22;3433;48.730;9.108;2023-03-09T03:37:13;10.10;99.90
6792;DHT22;3433;48.730;9.108;2023-03-09T03:39:40;10.00;99.90
6792;DHT22;3433;48.730;9.108;2023-03-09T03:42:07;10.00;99.90
6792;DHT22;3433;48.730;9.108;2023-03-09T03:44:34;10.00;99.90
6792;DHT22;3433;48.730;9.108;2023-03-09T03:47:01;10.00;99.90
6792;DHT22;3433;48.730;9.108;2023-03-09T03:49:28;10.00;99.90
6792;DHT22;3433;48.730;9.108;2023-03-09T03:51:56;10.00;99.90
6792;DHT22;3433;48.730;9.108;2023-03-09T03:54:23;9.90;99.90
6792;DHT22;3433;48.730;9.108;2023-03-09T03:56:51;9.90;99.90
6792;DHT22;3433;48.730;9.108;2023-03-09T03:59:18;9.80;99.90
6792;DHT22;3433;48.730;9.108;2023-03-09T04:01:45;9.90;99.90
6792;DHT22;3433;48.730;9.108;2023-03-09T04:04:11;9.70;99.90
6792;DHT22;3433;48.730;9.108;2023-03-09T04:06:38;9.70;99.90
6792;DHT22;3433;48.730;9.108;2023-03-09T04:09:07;9.80;99.90
6792;DHT22;3433;48.730;9.108;2023-03-09T04:11:34;9.80;99.90
6792;DHT22;3433;48.730;9.108;2023-03-09T04:14:01;9.80;99.90
6792;DHT22;3433;48.730;9.108;2023-03-09T04:16:28;9.70;99.90
6792;DHT22;3433;48.730;9.108;2023-03-09T04:18:55;9.70;99.90
6792;DHT22;3433;48.730;9.108;2023-03-09T04:21:22;9.60;99.90
6792;DHT22;3433;48.730;9.108;2023-03-09T04:23:49;9.70;99.90
6792;DHT22;3433;48.730;9.108;2023-03-09T04:26:17;9.70;99.90
6792;DHT22;3433;48.730;9.108;2023-03-09T04:28:44;9.70;99.90
6792;DHT22;3433;48.730;9.108;2023-03-09T04:31:11;9.70;99.90
6792;DHT22;3433;48.730;9.108;2023-03-09T04:33:38;9.70;99.90
6792;DHT22;3433;48.730;9.108;2023-03-09T04:36:08;9.70;99.90
6792;DHT22;3433;48.730;9.108;2023-03-09T04:38:35;9.70;99.90
6792;DHT22;3433;48.730;9.108;2023-03-09T04:41:03;9.70;99.90
6792;DHT22;3433;48.730;9.108;2023-03-09T04:43:31;9.70;99.90
6792;DHT22;3433;48.730;9.108;2023-03-09T04:45:58;9.70;99.90
6792;DHT22;3433;48.730;9.108;2023-03-09T04:48:25;9.70;99.90
6792;DHT22;3433;48.730;9.108;2023-03-09T04:50:51;9.70;99.90
6792;DHT22;3433;48.730;9.108;2023-03-09T04:53:18;9.70;99.90
6792;DHT22;3433;48.730;9.108;2023-03-09T04:55:45;9.70;99.90
6792;DHT22;3433;48.730;9.108;2023-03-09T04:58:12;9.70;99.90
6792;DHT22;3433;48.730;9.108;2023-03-09T05:00:40;9.60;99.90
6792;DHT22;3433;48.730;9.108;2023-03-09T05:03:07;9.50;99.90
6792;DHT22;3433;48.730;9.108;2023-03-09T05:05:34;9.60;99.90
6792;DHT22;3433;48.730;9.108;2023-03-09T05:08:01;9.60;99.90
6792;DHT22;3433;48.730;9.108;2023-03-09T05:10:28;9.60;99.90
6792;DHT22;3433;48.730;9.108;2023-03-09T05:12:54;9.60;99.90
6792;DHT22;3433;48.730;9.108;2023-03-09T05:15:21;9.60;99.90
6792;DHT22;3433;48.730;9.108;2023-03-09T05:17:49;9.60;99.90
6792;DHT22;3433;48.730;9.108;2023-03-09T05:20:17;9.60;99.90
6792;DHT22;3433;48.730;9.108;2023-03-09T05:22:43;9.60;99.90
6792;DHT22;3433;48.730;9.108;2023-03-09T05:25:10;9.70;99.90
6792;DHT22;3433;48.730;9.108;2023-03-09T05:27:37;10.10;99.90
6792;DHT22;3433;48.730;9.108;2023-03-09T05:30:05;10.30;99.90
6792;DHT22;3433;48.730;9.108;2023-03-09T05:32:32;10.70;99.90
6792;DHT22;3433;48.730;9.108;2023-03-09T05:35:00;10.90;99.90
6792;DHT22;3433;48.730;9.108;2023-03-09T05:37:27;11.00;99.90
6792;DHT22;3433;48.730;9.108;2023-03-09T05:39:54;10.90;99.90
6792;DHT22;3433;48.730;9.108;2023-03-09T05:42:23;10.80;99.90
6792;DHT22;3433;48.730;9.108;2023-03-09T05:44:50;10.80;99.90
6792;DHT22;3433;48.730;9.108;2023-03-09T05:47:20;10.70;99.90
6792;DHT22;3433;48.730;9.108;2023-03-09T05:49:48;10.50;99.90
6792;DHT22;3433;48.730;9.108;2023-03-09T05:52:16;10.50;99.90
6792;DHT22;3433;48.730;9.108;2023-03-09T05:54:43;10.50;99.90
6792;DHT22;3433;48.730;9.108;2023-03-09T05:57:10;10.50;99.90
6792;DHT22;3433;48.730;9.108;2023-03-09T05:59:37;10.30;99.90
6792;DHT22;3433;48.730;9.108;2023-03-09T06:02:04;10.30;99.90
6792;DHT22;3433;48.730;9.108;2023-03-09T06:04:31;10.30;99.90
6792;DHT22;3433;48.730;9.108;2023-03-09T06:06:59;10.30;99.90
6792;DHT22;3433;48.730;9.108;2023-03-09T06:09:27;10.20;99.90
6792;DHT22;3433;48.730;9.108;2023-03-09T06:11:54;10.20;99.90
6792;DHT22;3433;48.730;9.108;2023-03-09T06:14:21;10.20;99.90
6792;DHT22;3433;48.730;9.108;2023-03-09T06:16:48;10.10;99.90
6792;DHT22;3433;48.730;9.108;2023-03-09T06:19:15;10.20;99.90
6792;DHT22;3433;48.730;9.108;2023-03-09T06:21:41;10.10;99.90
6792;DHT22;3433;48.730;9.108;2023-03-09T06:24:09;10.10;99.90
6792;DHT22;3433;48.730;9.108;2023-03-09T06:26:37;10.20;99.90
6792;DHT22;3433;48.730;9.108;2023-03-09T06:29:04;10.20;99.90
6792;DHT22;3433;48.730;9.108;2023-03-09T06:31:31;9.90;99.90
6792;DHT22;3433;48.730;9.108;2023-03-09T06:33:58;10.10;99.90
6792;DHT22;3433;48.730;9.108;2023-03-09T06:36:25;10.30;99.90
6792;DHT22;3433;48.730;9.108;2023-03-09T06:38:52;10.30;99.90
6792;DHT22;3433;48.730;9.108;2023-03-09T06:41:20;10.40;99.90
6792;DHT22;3433;48.730;9.108;2023-03-09T06:43:58;10.30;99.90
6792;DHT22;3433;48.730;9.108;2023-03-09T06:46:26;10.30;99.90
6792;DHT22;3433;48.730;9.108;2023-03-09T06:48:53;10.20;99.90
6792;DHT22;3433;48.730;9.108;2023-03-09T06:51:20;10.10;99.90
6792;DHT22;3433;48.730;9.108;2023-03-09T06:53:47;10.20;99.90
6792;DHT22;3433;48.730;9.108;2023-03-09T06:56:14;10.10;99.90
6792;DHT22;3433;48.730;9.108;2023-03-09T06:58:41;10.10;99.90
6792;DHT22;3433;48.730;9.108;2023-03-09T07:01:11;10.00;99.90
6792;DHT22;3433;48.730;9.108;2023-03-09T07:03:39;9.90;99.90
6792;DHT22;3433;48.730;9.108;2023-03-09T07:06:07;10.00;99.90
6792;DHT22;3433;48.730;9.108;2023-03-09T07:08:34;9.90;99.90
6792;DHT22;3433;48.730;9.108;2023-03-09T07:11:01;9.90;99.90
6792;DHT22;3433;48.730;9.108;2023-03-09T07:13:29;9.90;99.90
6792;DHT22;3433;48.730;9.108;2023-03-09T07:15:58;9.80;99.90
6792;DHT22;3433;48.730;9.108;2023-03-09T07:18:29;10.00;99.90
6792;DHT22;3433;48.730;9.108;2023-03-09T07:20:58;10.20;99.90
6792;DHT22;3433;48.730;9.108;2023-03-09T07:23:26;10.30;99.90
6792;DHT22;3433;48.730;9.108;2023-03-09T07:25:53;10.30;99.90
6792;DHT22;3433;48.730;9.108;2023-03-09T07:28:22;10.30;99.90
6792;DHT22;3433;48.730;9.108;2023-03-09T07:30:49;10.50;99.90
6792;DHT22;3433;48.730;9.108;2023-03-09T07:33:16;10.70;99.90
6792;DHT22;3433;48.730;9.108;2023-03-09T07:35:44;10.70;99.90
6792;DHT22;3433;48.730;9.108;2023-03-09T07:38:11;10.90;99.90
6792;DHT22;3433;48.730;9.108;2023-03-09T07:40:38;11.00;99.90
6792;DHT22;3433;48.730;9.108;2023-03-09T07:43:05;11.10;99.90
6792;DHT22;3433;48.730;9.108;2023-03-09T07:45:32;11.00;99.90
6792;DHT22;3433;48.730;9.108;2023-03-09T07:47:59;11.20;99.90
6792;DHT22;3433;48.730;9.108;2023-03-09T07:50:25;11.30;99.90
6792;DHT22;3433;48.730;9.108;2023-03-09T07:52:55;11.50;99.90
6792;DHT22;3433;48.730;9.108;2023-03-09T07:55:22;11.70;99.90
6792;DHT22;3433;48.730;9.108;2023-03-09T07:57:51;11.90;99.90
6792;DHT22;3433;48.730;9.108;2023-03-09T08:00:19;11.80;99.90
6792;DHT22;3433;48.730;9.108;2023-03-09T08:02:48;12.10;99.90
6792;DHT22;3433;48.730;9.108;2023-03-09T08:05:16;12.20;99.90
6792;DHT22;3433;48.730;9.108;2023-03-09T08:07:43;12.20;99.90
6792;DHT22;3433;48.730;9.108;2023-03-09T08:10:14;12.10;99.90
6792;DHT22;3433;48.730;9.108;2023-03-09T08:12:42;12.10;99.90
6792;DHT22;3433;48.730;9.108;2023-03-09T08:15:10;12.20;99.90
6792;DHT22;3433;48.730;9.108;2023-03-09T08:17:36;12.20;99.90
6792;DHT22;3433;48.730;9.108;2023-03-09T08:20:04;12.40;99.90
6792;DHT22;3433;48.730;9.108;2023-03-09T08:22:34;12.40;99.90
6792;DHT22;3433;48.730;9.108;2023-03-09T08:25:02;12.40;99.90
6792;DHT22;3433;48.730;9.108;2023-03-09T08:27:37;12.20;99.90
6792;DHT22;3433;48.730;9.108;2023-03-09T08:30:04;12.30;99.90
6792;DHT22;3433;48.730;9.108;2023-03-09T08:32:31;12.20;99.90
6792;DHT22;3433;48.730;9.108;2023-03-09T08:34:58;12.30;99.90
6792;DHT22;3433;48.730;9.108;2023-03-09T08:37:25;12.40;99.90
6792;DHT22;3433;48.730;9.108;2023-03-09T08:39:52;12.30;99.90
6792;DHT22;3433;48.730;9.108;2023-03-09T08:42:19;12.30;99.90
6792;DHT22;3433;48.730;9.108;2023-03-09T08:44:47;12.40;99.90
6792;DHT22;3433;48.730;9.108;2023-03-09T08:47:14;12.30;99.90
6792;DHT22;3433;48.730;9.108;2023-03-09T08:49:41;12.20;99.90
6792;DHT22;3433;48.730;9.108;2023-03-09T08:52:08;12.00;99.90
6792;DHT22;3433;48.730;9.108;2023-03-09T08:54:35;11.90;99.90
6792;DHT22;3433;48.730;9.108;2023-03-09T08:57:03;11.90;99.90
6792;DHT22;3433;48.730;9.108;2023-03-09T08:59:30;11.90;99.90
6792;DHT22;3433;48.730;9.108;2023-03-09T09:01:58;12.10;99.90
6792;DHT22;3433;48.730;9.108;2023-03-09T09:04:25;12.10;99.90
6792;DHT22;3433;48.730;9.108;2023-03-09T09:06:52;12.10;99.90
6792;DHT22;3433;48.730;9.108;2023-03-09T09:09:20;12.10;99.90
6792;DHT22;3433;48.730;9.108;2023-03-09T09:11:47;12.10;99.90
6792;DHT22;3433;48.730;9.108;2023-03-09T09:14:15;12.00;99.90
6792;DHT22;3433;48.730;9.108;2023-03-09T09:16:42;12.10;99.90
6792;DHT22;3433;48.730;9.108;2023-03-09T09:19:10;11.90;99.90
6792;DHT22;3433;48.730;9.108;2023-03-09T09:21:37;11.70;99.90
6792;DHT22;3433;48.730;9.108;2023-03-09T09:24:04;11.90;99.90
6792;DHT22;3433;48.730;9.108;2023-03-09T09:26:31;11.60;99.90
6792;DHT22;3433;48.730;9.108;2023-03-09T09:28:59;11.80;99.90
6792;DHT22;3433;48.730;9.108;2023-03-09T09:31:28;11.80;99.90
6792;DHT22;3433;48.730;9.108;2023-03-09T09:33:54;11.90;99.90
6792;DHT22;3433;48.730;9.108;2023-03-09T09:36:23;12.10;99.90
6792;DHT22;3433;48.730;9.108;2023-03-09T09:38:52;12.10;99.90
6792;DHT22;3433;48.730;9.108;2023-03-09T09:41:23;12.10;99.90
6792;DHT22;3433;48.730;9.108;2023-03-09T09:43:53;12.10;99.90
6792;DHT22;3433;48.730;9.108;2023-03-09T09:46:23;12.10;99.90
6792;DHT22;3433;48.730;9.108;2023-03-09T09:48:50;12.10;99.90
6792;DHT22;3433;48.730;9.108;2023-03-09T09:51:33;11.80;99.90
6792;DHT22;3433;48.730;9.108;2023-03-09T09:54:10;11.70;99.90
6792;DHT22;3433;48.730;9.108;2023-03-09T09:56:45;11.70;99.90
6792;DHT22;3433;48.730;9.108;2023-03-09T09:59:17;11.70;99.90
6792;DHT22;3433;48.730;9.108;2023-03-09T10:01:50;11.70;99.90
6792;DHT22;3433;48.730;9.108;2023-03-09T10:04:23;11.50;99.90
6792;DHT22;3433;48.730;9.108;2023-03-09T10:06:57;11.80;99.90
6792;DHT22;3433;48.730;9.108;2023-03-09T10:09:26;12.20;99.90
6792;DHT22;3433;48.730;9.108;2023-03-09T10:11:56;12.30;99.90
6792;DHT22;3433;48.730;9.108;2023-03-09T10:14:28;12.40;99.90
6792;DHT22;3433;48.730;9.108;2023-03-09T10:16:59;12.30;99.90
6792;DHT22;3433;48.730;9.108;2023-03-09T10:19:31;12.30;99.90
6792;DHT22;3433;48.730;9.108;2023-03-09T10:22:02;12.30;99.90
6792;DHT22;3433;48.730;9.108;2023-03-09T10:24:36;12.20;99.90
6792;DHT22;3433;48.730;9.108;2023-03-09T10:27:11;12.10;99.90
6792;DHT22;3433;48.730;9.108;2023-03-09T10:29:45;11.90;99.90
6792;DHT22;3433;48.730;9.108;2023-03-09T10:32:20;11.50;99.90
6792;DHT22;3433;48.730;9.108;2023-03-09T10:34:53;11.80;99.90
6792;DHT22;3433;48.730;9.108;2023-03-09T10:37:25;11.80;99.90
6792;DHT22;3433;48.730;9.108;2023-03-09T10:39:53;11.90;99.90
6792;DHT22;3433;48.730;9.108;2023-03-09T10:42:23;12.20;99.90
6792;DHT22;3433;48.730;9.108;2023-03-09T10:45:03;12.30;99.90
6792;DHT22;3433;48.730;9.108;2023-03-09T10:47:53;12.80;99.90
6792;DHT22;3433;48.730;9.108;2023-03-09T10:50:21;13.10;99.90
6792;DHT22;3433;48.730;9.108;2023-03-09T10:52:52;13.40;99.90
6792;DHT22;3433;48.730;9.108;2023-03-09T10:55:34;13.60;99.90
6792;DHT22;3433;48.730;9.108;2023-03-09T10:58:12;13.90;99.90
6792;DHT22;3433;48.730;9.108;2023-03-09T11:00:54;14.20;99.90
6792;DHT22;3433;48.730;9.108;2023-03-09T11:03:23;14.40;99.90
6792;DHT22;3433;48.730;9.108;2023-03-09T11:05:51;14.10;99.90
6792;DHT22;3433;48.730;9.108;2023-03-09T11:08:25;14.30;99.90
6792;DHT22;3433;48.730;9.108;2023-03-09T11:11:01;14.40;99.90
6792;DHT22;3433;48.730;9.108;2023-03-09T11:13:29;14.60;99.90
6792;DHT22;3433;48.730;9.108;2023-03-09T11:16:12;14.50;99.90
6792;DHT22;3433;48.730;9.108;2023-03-09T11:18:40;14.90;99.90
6792;DHT22;3433;48.730;9.108;2023-03-09T11:21:07;15.10;99.90
6792;DHT22;3433;48.730;9.108;2023-03-09T11:23:39;15.10;99.90
6792;DHT22;3433;48.730;9.108;2023-03-09T11:26:15;15.30;99.90
6792;DHT22;3433;48.730;9.108;2023-03-09T11:28:53;15.30;99.90
6792;DHT22;3433;48.730;9.108;2023-03-09T11:31:33;15.30;99.90
6792;DHT22;3433;48.730;9.108;2023-03-09T11:34:01;15.30;99.90
6792;DHT22;3433;48.730;9.108;2023-03-09T11:36:33;15.40;99.90
6792;DHT22;3433;48.730;9.108;2023-03-09T11:39:08;15.40;99.90
6792;DHT22;3433;48.730;9.108;2023-03-09T11:41:41;15.80;99.90
6792;DHT22;3433;48.730;9.108;2023-03-09T11:44:13;15.90;99.80
6792;DHT22;3433;48.730;9.108;2023-03-09T11:46:42;15.60;99.00
6792;DHT22;3433;48.730;9.108;2023-03-09T11:49:13;15.30;98.50
6792;DHT22;3433;48.730;9.108;2023-03-09T11:51:46;15.00;99.30
6792;DHT22;3433;48.730;9.108;2023-03-09T11:54:20;15.00;99.60
6792;DHT22;3433;48.730;9.108;2023-03-09T11:56:50;15.00;99.30
6792;DHT22;3433;48.730;9.108;2023-03-09T11:59:20;15.30;99.70
6792;DHT22;3433;48.730;9.108;2023-03-09T12:01:52;15.40;99.90
6792;DHT22;3433;48.730;9.108;2023-03-09T12:04:22;15.60;99.90
6792;DHT22;3433;48.730;9.108;2023-03-09T12:06:52;15.50;99.90
6792;DHT22;3433;48.730;9.108;2023-03-09T12:09:36;15.50;99.30
6792;DHT22;3433;48.730;9.108;2023-03-09T12:12:19;15.80;99.90
6792;DHT22;3433;48.730;9.108;2023-03-09T12:14:50;16.00;99.10
6792;DHT22;3433;48.730;9.108;2023-03-09T12:17:20;15.90;99.00
6792;DHT22;3433;48.730;9.108;2023-03-09T12:19:50;15.90;99.70
6792;DHT22;3433;48.730;9.108;2023-03-09T12:22:20;16.20;99.40
6792;DHT22;3433;48.730;9.108;2023-03-09T12:24:56;16.10;98.80
6792;DHT22;3433;48.730;9.108;2023-03-09T12:27:25;16.20;98.70
6792;DHT22;3433;48.730;9.108;2023-03-09T12:29:55;16.10;98.60
6792;DHT22;3433;48.730;9.108;2023-03-09T12:32:45;15.80;98.00
6792;DHT22;3433;48.730;9.108;2023-03-09T12:38:17;16.10;98.30
6792;DHT22;3433;48.730;9.108;2023-03-09T12:40:47;16.10;98.70
6792;DHT22;3433;48.730;9.108;2023-03-09T12:47:00;15.90;98.60
6792;DHT22;3433;48.730;9.108;2023-03-09T12:49:32;15.90;98.00
6792;DHT22;3433;48.730;9.108;2023-03-09T12:55:13;15.60;98.40
6792;DHT22;3433;48.730;9.108;2023-03-09T12:57:43;15.70;99.30
6792;DHT22;3433;48.730;9.108;2023-03-09T13:00:18;15.30;97.80
6792;DHT22;3433;48.730;9.108;2023-03-09T13:02:49;15.10;98.10
6792;DHT22;3433;48.730;9.108;2023-03-09T13:05:36;14.90;97.80
6792;DHT22;3433;48.730;9.108;2023-03-09T13:08:17;14.70;97.90
6792;DHT22;3433;48.730;9.108;2023-03-09T13:10:45;14.90;98.70
6792;DHT22;3433;48.730;9.108;2023-03-09T13:13:35;14.80;98.30
6792;DHT22;3433;48.730;9.108;2023-03-09T13:19:38;14.50;98.90
6792;DHT22;3433;48.730;9.108;2023-03-09T13:22:29;14.50;99.10
6792;DHT22;3433;48.730;9.108;2023-03-09T13:25:24;14.40;99.00
6792;DHT22;3433;48.730;9.108;2023-03-09T13:30:47;14.40;99.70
6792;DHT22;3433;48.730;9.108;2023-03-09T13:33:18;14.20;99.10
6792;DHT22;3433;48.730;9.108;2023-03-09T13:35:52;14.00;99.30
6792;DHT22;3433;48.730;9.108;2023-03-09T13:38:23;13.60;99.40
6792;DHT22;3433;48.730;9.108;2023-03-09T13:40:53;13.70;99.90
6792;DHT22;3433;48.730;9.108;2023-03-09T13:43:24;13.60;99.70
6792;DHT22;3433;48.730;9.108;2023-03-09T13:46:02;13.70;99.90
6792;DHT22;3433;48.730;9.108;2023-03-09T13:48:32;13.60;99.70
6792;DHT22;3433;48.730;9.108;2023-03-09T13:51:00;13.40;99.90
6792;DHT22;3433;48.730;9.108;2023-03-09T13:53:28;13.40;99.90
6792;DHT22;3433;48.730;9.108;2023-03-09T13:55:57;13.30;99.90
6792;DHT22;3433;48.730;9.108;2023-03-09T13:58:25;13.40;99.90
6792;DHT22;3433;48.730;9.108;2023-03-09T14:00:53;13.40;99.90
6792;DHT22;3433;48.730;9.108;2023-03-09T14:03:23;13.50;99.90
6792;DHT22;3433;48.730;9.108;2023-03-09T14:05:55;13.80;99.90
6792;DHT22;3433;48.730;9.108;2023-03-09T14:08:23;14.00;99.90
6792;DHT22;3433;48.730;9.108;2023-03-09T14:10:51;13.90;99.90
6792;DHT22;3433;48.730;9.108;2023-03-09T14:13:20;14.00;99.90
6792;DHT22;3433;48.730;9.108;2023-03-09T14:15:58;14.10;99.90
6792;DHT22;3433;48.730;9.108;2023-03-09T14:18:34;14.10;99.90
6792;DHT22;3433;48.730;9.108;2023-03-09T14:21:02;14.10;99.90
6792;DHT22;3433;48.730;9.108;2023-03-09T14:23:36;14.20;99.90
6792;DHT22;3433;48.730;9.108;2023-03-09T14:26:04;14.50;99.90
6792;DHT22;3433;48.730;9.108;2023-03-09T14:28:33;14.90;99.90
6792;DHT22;3433;48.730;9.108;2023-03-09T14:31:10;14.80;99.60
6792;DHT22;3433;48.730;9.108;2023-03-09T14:33:39;15.00;99.80
6792;DHT22;3433;48.730;9.108;2023-03-09T14:36:14;15.00;99.70
6792;DHT22;3433;48.730;9.108;2023-03-09T14:38:52;14.80;99.20
6792;DHT22;3433;48.730;9.108;2023-03-09T14:41:20;14.60;99.90
6792;DHT22;3433;48.730;9.108;2023-03-09T14:43:48;14.80;99.90
6792;DHT22;3433;48.730;9.108;2023-03-09T14:46:16;14.80;99.90
6792;DHT22;3433;48.730;9.108;2023-03-09T14:48:49;14.60;99.90
6792;DHT22;3433;48.730;9.108;2023-03-09T14:51:19;14.40;99.90
6792;DHT22;3433;48.730;9.108;2023-03-09T14:53:52;14.60;99.90
6792;DHT22;3433;48.730;9.108;2023-03-09T14:56:19;14.50;99.90
6792;DHT22;3433;48.730;9.108;2023-03-09T14:58:46;14.40;99.90
6792;DHT22;3433;48.730;9.108;2023-03-09T15:01:14;14.60;99.90
6792;DHT22;3433;48.730;9.108;2023-03-09T15:03:41;14.70;99.90
6792;DHT22;3433;48.730;9.108;2023-03-09T15:06:10;14.90;99.90
6792;DHT22;3433;48.730;9.108;2023-03-09T15:08:37;14.90;99.90
6792;DHT22;3433;48.730;9.108;2023-03-09T15:11:06;15.20;99.90
6792;DHT22;3433;48.730;9.108;2023-03-09T15:13:34;15.40;99.80
6792;DHT22;3433;48.730;9.108;2023-03-09T15:16:01;15.50;99.80
6792;DHT22;3433;48.730;9.108;2023-03-09T15:18:29;15.30;99.30
6792;DHT22;3433;48.730;9.108;2023-03-09T15:20:56;15.40;99.40
6792;DHT22;3433;48.730;9.108;2023-03-09T15:23:24;15.40;99.10
6792;DHT22;3433;48.730;9.108;2023-03-09T15:25:51;15.50;99.40
6792;DHT22;3433;48.730;9.108;2023-03-09T15:28:18;15.50;99.20
6792;DHT22;3433;48.730;9.108;2023-03-09T15:30:45;15.30;98.60
6792;DHT22;3433;48.730;9.108;2023-03-09T15:33:12;15.20;98.90
6792;DHT22;3433;48.730;9.108;2023-03-09T15:35:40;15.30;98.60
6792;DHT22;3433;48.730;9.108;2023-03-09T15:38:08;15.00;98.40
6792;DHT22;3433;48.730;9.108;2023-03-09T15:40:39;14.80;99.40
6792;DHT22;3433;48.730;9.108;2023-03-09T15:43:07;14.60;99.00
6792;DHT22;3433;48.730;9.108;2023-03-09T15:45:39;14.50;99.10
6792;DHT22;3433;48.730;9.108;2023-03-09T15:48:06;14.30;99.50
6792;DHT22;3433;48.730;9.108;2023-03-09T15:50:34;14.30;99.60
6792;DHT22;3433;48.730;9.108;2023-03-09T15:53:04;14.20;99.60
6792;DHT22;3433;48.730;9.108;2023-03-09T15:55:31;14.20;99.50
6792;DHT22;3433;48.730;9.108;2023-03-09T15:57:59;14.20;99.80
6792;DHT22;3433;48.730;9.108;2023-03-09T16:00:27;14.20;99.80
6792;DHT22;3433;48.730;9.108;2023-03-09T16:02:59;14.00;99.50
6792;DHT22;3433;48.730;9.108;2023-03-09T16:05:26;13.90;99.50
6792;DHT22;3433;48.730;9.108;2023-03-09T16:07:53;13.90;99.50
6792;DHT22;3433;48.730;9.108;2023-03-09T16:10:20;13.80;99.80
6792;DHT22;3433;48.730;9.108;2023-03-09T16:12:47;13.80;99.70
6792;DHT22;3433;48.730;9.108;2023-03-09T16:15:16;13.80;99.70
6792;DHT22;3433;48.730;9.108;2023-03-09T16:17:43;13.80;99.90
6792;DHT22;3433;48.730;9.108;2023-03-09T16:20:13;13.80;99.50
6792;DHT22;3433;48.730;9.108;2023-03-09T16:22:46;13.80;99.70
6792;DHT22;3433;48.730;9.108;2023-03-09T16:25:13;13.80;99.90
6792;DHT22;3433;48.730;9.108;2023-03-09T16:27:41;13.70;99.70
6792;DHT22;3433;48.730;9.108;2023-03-09T16:30:10;13.60;99.50
6792;DHT22;3433;48.730;9.108;2023-03-09T16:32:38;13.60;99.90
6792;DHT22;3433;48.730;9.108;2023-03-09T16:35:07;13.60;99.70
6792;DHT22;3433;48.730;9.108;2023-03-09T16:37:34;13.50;99.40
6792;DHT22;3433;48.730;9.108;2023-03-09T16:40:01;13.30;99.20